Time;durP1;ratioP1;P1;durP2;ratioP2;P2;SDS_P1;SDS_P2;PMS_P1;PMS_P2;Temp;Humidity;BMP_temperature;BMP_pressure;BME280_temperature;BME280_humidity;BME280_pressure;Samples;Min_cycle;Max_cycle;Signal;HPM_P1;HPM_P2
2022/03/02 00:00:10;;;;;;;101.47;42.93;;;;;;;-3.56;69.85;102000.25;1689478;83;21055;-70
2022/03/02 00:02:38;;;;;;;;;;;;;;;-3.55;69.89;102004.55;1719340;83;21039;-70
2022/03/02 00:05:05;;;;;;;91.78;37.70;;;;;;;-3.47;69.93;102006.09;1699362;83;20237;-70
2022/03/02 00:07:31;;;;;;;101.82;40.05;;;;;;;-3.44;69.94;102009.91;1700732;83;21041;-70
2022/03/02 00:09:57;;;;;;;101.78;39.88;;;;;;;-3.38;69.96;102007.16;1688516;83;20989;-70
2022/03/02 00:12:23;;;;;;;97.95;39.48;;;;;;;-3.35;69.98;102009.23;1702487;83;21068;-70
2022/03/02 00:14:49;;;;;;;122.90;45.70;;;;;;;-3.32;70.03;102008.29;1694054;83;21086;-70
2022/03/02 00:17:15;;;;;;;119.25;46.92;;;;;;;-3.29;70.04;102008.20;1698343;83;21020;-70
2022/03/02 00:19:43;;;;;;;107.52;42.80;;;;;;;-3.29;70.05;102006.89;1697474;83;21147;-70
2022/03/02 00:22:10;;;;;;;128.75;52.00;;;;;;;-3.29;70.10;102000.38;1710186;83;21077;-69
2022/03/02 00:24:36;;;;;;;145.68;52.13;;;;;;;-3.27;70.13;102001.20;1705488;83;21036;-70
2022/03/02 00:27:03;;;;;;;139.30;51.60;;;;;;;-3.28;70.15;102004.70;1687791;84;20982;-70
2022/03/02 00:29:29;;;;;;;145.90;58.15;;;;;;;-3.31;70.19;102005.66;1679923;85;21017;-70
2022/03/02 00:31:55;;;;;;;116.47;49.95;;;;;;;-3.33;70.24;102001.35;1663598;86;21214;-70
2022/03/02 00:34:21;;;;;;;133.87;53.52;;;;;;;-3.35;70.27;101996.64;1679912;85;26685;-69
2022/03/02 00:36:47;;;;;;;109.17;43.25;;;;;;;-3.39;70.28;101988.49;1680465;84;21049;-69
2022/03/02 00:39:13;;;;;;;119.67;49.00;;;;;;;-3.47;70.29;101987.39;1694747;84;20984;-69
2022/03/02 00:41:39;;;;;;;109.27;44.65;;;;;;;-3.49;70.29;101977.47;1694738;84;20937;-69
2022/03/02 00:44:05;;;;;;;110.80;44.27;;;;;;;-3.52;70.29;101970.19;1663553;86;21149;-69
2022/03/02 00:46:31;;;;;;;103.00;40.98;;;;;;;-3.52;70.34;101974.09;1694587;84;21068;-70
2022/03/02 00:49:01;;;;;;;123.87;46.90;;;;;;;-3.54;70.36;101974.98;1667581;86;21020;-69
2022/03/02 00:51:28;;;;;;;124.27;47.65;;;;;;;-3.49;70.37;101963.58;1700208;84;21470;-69
2022/03/02 00:53:54;;;;;;;117.72;43.87;;;;;;;-3.46;70.42;101959.13;1700531;84;21010;-69
2022/03/02 00:56:21;;;;;;;121.80;45.60;;;;;;;-3.44;70.44;101962.98;1700331;84;21148;-69
2022/03/02 00:58:47;;;;;;;95.17;38.98;;;;;;;-3.45;70.48;101959.98;1700055;84;21576;-69
2022/03/02 01:01:14;;;;;;;106.32;44.63;;;;;;;-3.43;70.46;101963.39;1698706;84;21448;-69
2022/03/02 01:03:40;;;;;;;119.77;48.42;;;;;;;-3.45;70.49;101954.77;1697904;84;21018;-70
2022/03/02 01:06:06;;;;;;;120.65;47.98;;;;;;;-3.46;70.51;101960.88;1694929;84;21714;-69
2022/03/02 01:08:33;;;;;;;112.55;49.38;;;;;;;-3.47;70.52;101957.41;1694432;84;21072;-69
2022/03/02 01:10:59;;;;;;;109.95;45.83;;;;;;;-3.46;70.56;101951.75;1704885;82;21003;-69
2022/03/02 01:13:25;;;;;;;98.67;44.25;;;;;;;-3.48;70.59;101953.08;1699960;82;21014;-69
2022/03/02 01:15:51;;;;;;;86.02;36.48;;;;;;;-3.47;70.59;101950.03;1700009;84;21029;-69
2022/03/02 01:18:17;;;;;;;98.45;40.15;;;;;;;-3.46;70.61;101958.27;1699291;84;21523;-69
2022/03/02 01:20:44;;;;;;;83.80;34.63;;;;;;;-3.46;70.63;101955.66;1694521;84;21624;-69
2022/03/02 01:23:10;;;;;;;86.28;36.55;;;;;;;-3.46;70.62;101957.83;1694606;84;21492;-70
2022/03/02 01:25:37;;;;;;;252.57;90.75;;;;;;;-3.41;70.62;101958.53;1694450;84;21116;-69
2022/03/02 01:28:05;;;;;;;485.10;170.12;;;;;;;-3.43;70.62;101954.27;1698620;84;21601;-69
2022/03/02 01:30:31;;;;;;;225.95;74.60;;;;;;;-3.47;70.62;101947.42;1699685;84;21017;-69
2022/03/02 01:33:00;;;;;;;135.10;51.37;;;;;;;-3.47;70.65;101944.81;1699024;84;21222;-70
2022/03/02 01:35:26;;;;;;;106.97;43.65;;;;;;;-3.49;70.64;101934.45;1694237;84;21024;-69
2022/03/02 01:37:52;;;;;;;99.30;38.60;;;;;;;-3.50;70.66;101930.57;1696385;84;21002;-69
2022/03/02 01:40:18;;;;;;;97.37;40.48;;;;;;;-3.52;70.66;101926.25;1700158;84;21006;-69
2022/03/02 01:42:44;;;;;;;102.50;41.05;;;;;;;-3.52;70.67;101921.95;1700306;84;21105;-69
2022/03/02 01:45:12;;;;;;;100.40;43.20;;;;;;;-3.49;70.67;101919.25;1700293;84;20968;-69
2022/03/02 01:47:38;;;;;;;105.47;40.43;;;;;;;-3.48;70.67;101920.97;1700157;84;21070;-69
2022/03/02 01:50:07;;;;;;;93.25;38.13;;;;;;;-3.50;70.67;101914.48;1700297;84;21538;-69
2022/03/02 01:52:33;;;;;;;95.12;36.48;;;;;;;-3.57;70.72;101923.38;1700151;84;21026;-69
2022/03/02 01:54:59;;;;;;;82.53;35.68;;;;;;;-3.63;70.74;101922.25;1700069;84;21026;-69
2022/03/02 01:57:25;;;;;;;80.53;32.40;;;;;;;-3.66;70.74;101910.13;1700255;84;21115;-69
2022/03/02 01:59:51;;;;;;;91.63;39.63;;;;;;;-3.64;70.75;101909.66;1700346;84;21018;-69
2022/03/02 02:02:17;;;;;;;123.75;50.78;;;;;;;-3.63;70.73;101912.69;1696804;84;21096;-69
2022/03/02 02:04:43;;;;;;;149.30;62.25;;;;;;;-3.68;70.74;101911.08;1694768;84;29148;-70
2022/03/02 02:07:09;;;;;;;151.47;61.35;;;;;;;-3.68;70.76;101910.64;1694945;84;21477;-69
2022/03/02 02:09:35;;;;;;;148.78;57.50;;;;;;;-3.68;70.76;101906.73;1694825;84;21637;-69
2022/03/02 02:12:01;;;;;;;170.72;68.10;;;;;;;-3.76;70.78;101903.92;1694781;84;27103;-69
2022/03/02 02:14:27;;;;;;;134.95;54.18;;;;;;;-3.81;70.79;101902.77;1690968;83;21020;-69
2022/03/02 02:16:53;;;;;;;102.10;41.28;;;;;;;-3.85;70.82;101897.23;1683939;85;21112;-69
2022/03/02 02:19:19;;;;;;;89.37;35.80;;;;;;;-3.86;70.83;101898.11;1684515;84;20914;-69
2022/03/02 02:21:48;;;;;;;93.17;39.20;;;;;;;-3.86;70.83;101899.41;1684689;85;21207;-69
2022/03/02 02:24:16;;;;;;;96.75;42.62;;;;;;;-3.88;70.85;101902.52;1684792;84;21033;-69
2022/03/02 02:26:42;;;;;;;104.10;42.00;;;;;;;-3.88;70.86;101893.41;1656107;85;21096;-70
2022/03/02 02:29:10;;;;;;;131.80;49.48;;;;;;;-3.92;70.87;101894.37;1684562;84;21081;-69
2022/03/02 02:31:35;;;;;;;186.75;62.30;;;;;;;-3.93;70.88;101890.05;1686840;84;21592;-69
2022/03/02 02:34:01;;;;;;;178.75;66.05;;;;;;;-3.96;70.90;101888.84;1684574;85;21939;-69
2022/03/02 02:36:27;;;;;;;166.28;61.10;;;;;;;-4.02;70.92;101881.20;1684507;85;21466;-69
2022/03/02 02:38:54;;;;;;;204.43;73.90;;;;;;;-4.01;70.92;101882.89;1684509;84;21530;-69
2022/03/02 02:41:20;;;;;;;231.25;89.55;;;;;;;-4.04;70.95;101877.77;1684731;84;21077;-69
2022/03/02 02:43:47;;;;;;;141.20;54.35;;;;;;;-4.04;70.97;101882.97;1684290;84;21065;-69
2022/03/02 02:46:13;;;;;;;151.97;54.27;;;;;;;-4.06;70.97;101878.27;1684438;84;21044;-69
2022/03/02 02:48:39;;;;;;;126.33;51.60;;;;;;;-4.15;70.97;101878.52;1684523;85;21045;-69
2022/03/02 02:51:06;;;;;;;123.72;48.55;;;;;;;-4.22;71.03;101871.77;1684381;85;21064;-69
2022/03/02 02:53:32;;;;;;;137.22;50.85;;;;;;;-4.24;71.07;101867.89;1684491;85;21537;-69
2022/03/02 02:55:58;;;;;;;142.93;58.60;;;;;;;-4.27;71.06;101871.02;1684477;84;21501;-70
2022/03/02 02:58:24;;;;;;;120.87;51.90;;;;;;;-4.36;71.06;101867.37;1684620;85;21876;-69
2022/03/02 03:00:50;;;;;;;138.60;55.98;;;;;;;-4.38;71.09;101866.09;1690960;84;20999;-69
2022/03/02 03:03:17;;;;;;;120.35;50.38;;;;;;;-4.41;71.09;101861.41;1695085;84;25691;-69
2022/03/02 03:05:44;;;;;;;131.90;52.78;;;;;;;-4.49;71.14;101864.64;1694725;84;21010;-69
2022/03/02 03:08:11;;;;;;;122.62;50.75;;;;;;;-4.56;71.18;101856.14;1695097;84;21539;-69
2022/03/02 03:10:38;;;;;;;113.52;47.30;;;;;;;-4.60;71.22;101852.77;1695012;84;21200;-69
2022/03/02 03:13:05;;;;;;;103.12;43.23;;;;;;;-4.60;71.25;101852.77;1694804;84;21002;-69
2022/03/02 03:15:31;;;;;;;88.92;39.55;;;;;;;-4.59;71.29;101846.67;1693196;82;21053;-69
2022/03/02 03:17:57;;;;;;;92.33;40.95;;;;;;;-4.59;71.33;101846.67;1692647;84;21006;-69
2022/03/02 03:20:26;;;;;;;102.65;43.08;;;;;;;-4.59;71.36;101854.48;1693235;84;26901;-69
2022/03/02 03:22:53;;;;;;;90.05;37.80;;;;;;;-4.57;71.39;101844.88;1665078;86;21101;-69
2022/03/02 03:25:19;;;;;;;89.35;39.42;;;;;;;-4.54;71.42;101840.89;1664990;86;21541;-69
2022/03/02 03:27:46;;;;;;;79.30;35.48;;;;;;;-4.55;71.45;101837.90;1669399;84;21518;-69
2022/03/02 03:30:13;;;;;;;79.58;33.78;;;;;;;-4.52;71.50;101832.20;1692831;84;21512;-69
2022/03/02 03:32:39;;;;;;;85.35;39.30;;;;;;;-4.48;71.53;101823.42;1692862;84;21079;-69
2022/03/02 03:35:08;;;;;;;87.37;35.38;;;;;;;-4.50;71.53;101825.22;1692526;84;21144;-69
2022/03/02 03:37:34;;;;;;;80.83;35.37;;;;;;;-4.47;71.55;101829.03;1693044;83;21515;-69
2022/03/02 03:40:00;;;;;;;70.22;29.70;;;;;;;-4.46;71.58;101823.77;1692778;84;21519;-69
2022/03/02 03:42:27;;;;;;;60.17;27.13;;;;;;;-4.44;71.58;101821.14;1693016;84;21123;-69
2022/03/02 03:44:53;;;;;;;71.37;30.40;;;;;;;-4.40;71.60;101814.97;1692835;84;21070;-69
2022/03/02 03:47:19;;;;;;;65.72;28.45;;;;;;;-4.38;71.59;101813.16;1692836;84;21200;-69
2022/03/02 03:49:45;;;;;;;79.07;34.78;;;;;;;-4.40;71.60;101812.36;1692985;83;21026;-69
2022/03/02 03:52:11;;;;;;;56.98;25.45;;;;;;;-4.41;71.62;101808.05;1692894;83;21007;-69
2022/03/02 03:54:37;;;;;;;74.30;29.35;;;;;;;-4.37;71.61;101804.47;1693138;84;21049;-69
2022/03/02 03:57:04;;;;;;;63.60;26.73;;;;;;;-4.35;71.61;101800.06;1692583;84;27085;-69
2022/03/02 03:59:30;;;;;;;65.75;27.22;;;;;;;-4.31;71.59;101806.89;1687397;84;22078;-69
2022/03/02 04:01:56;;;;;;;70.28;27.20;;;;;;;-4.29;71.61;101807.25;1687054;83;27171;-69
2022/03/02 04:04:22;;;;;;;51.35;22.62;;;;;;;-4.26;71.62;101811.11;1656118;85;25847;-69
2022/03/02 04:06:48;;;;;;;49.42;22.42;;;;;;;-4.23;71.58;101797.14;1674979;85;21014;-69
2022/03/02 04:09:14;;;;;;;45.20;21.60;;;;;;;-4.20;71.58;101795.75;1674892;84;24860;-69
2022/03/02 04:11:40;;;;;;;50.08;20.62;;;;;;;-4.18;71.57;101791.34;1675187;85;21203;-69
2022/03/02 04:14:08;;;;;;;44.00;21.57;;;;;;;-4.16;71.57;101785.66;1675111;84;26647;-69
2022/03/02 04:16:35;;;;;;;65.85;26.60;;;;;;;-4.12;71.54;101787.28;1674834;85;21086;-69
2022/03/02 04:19:01;;;;;;;50.10;22.07;;;;;;;-4.11;71.52;101783.75;1655846;86;21103;-69
2022/03/02 04:21:27;;;;;;;60.03;24.37;;;;;;;-4.14;71.52;101783.84;1656249;86;21007;-69
2022/03/02 04:23:53;;;;;;;58.58;26.23;;;;;;;-4.13;71.49;101788.17;1675004;85;21134;-69
2022/03/02 04:26:19;;;;;;;60.52;24.63;;;;;;;-4.13;71.48;101788.17;1680699;85;26712;-69
2022/03/02 04:28:45;;;;;;;64.58;27.05;;;;;;;-4.16;71.48;101785.66;1685208;85;21006;-69
2022/03/02 04:31:11;;;;;;;49.58;22.90;;;;;;;-4.19;71.44;101785.30;1685429;85;28778;-69
2022/03/02 04:33:37;;;;;;;56.15;25.32;;;;;;;-4.17;71.43;101781.33;1685521;85;21562;-70
2022/03/02 04:36:04;;;;;;;52.35;21.48;;;;;;;-4.11;71.40;101781.16;1664592;85;21154;-69
2022/03/02 04:38:30;;;;;;;57.00;24.98;;;;;;;-4.09;71.37;101781.98;1685635;85;21030;-69
2022/03/02 04:40:56;;;;;;;59.27;23.95;;;;;;;-4.08;71.36;101783.67;1685223;85;21018;-69
2022/03/02 04:43:22;;;;;;;54.55;24.43;;;;;;;-4.12;71.33;101784.68;1685382;85;28101;-69
2022/03/02 04:45:48;;;;;;;56.20;24.20;;;;;;;-4.19;71.33;101781.39;1685195;85;21058;-69
2022/03/02 04:48:14;;;;;;;46.85;22.20;;;;;;;-4.20;71.33;101784.03;1685304;85;21167;-69
2022/03/02 04:50:40;;;;;;;52.55;24.02;;;;;;;-4.21;71.33;101781.87;1685379;85;26591;-69
2022/03/02 04:53:06;;;;;;;60.05;24.02;;;;;;;-4.26;71.31;101776.39;1685350;85;21531;-69
2022/03/02 04:55:32;;;;;;;70.03;29.32;;;;;;;-4.26;71.29;101779.00;1685520;85;21609;-69
2022/03/02 04:57:59;;;;;;;60.55;27.35;;;;;;;-4.27;71.25;101775.53;1679510;85;21534;-69
2022/03/02 05:00:29;;;;;;;96.17;37.35;;;;;;;-4.29;71.24;101776.48;1674734;85;21354;-69
2022/03/02 05:02:55;;;;;;;87.25;32.95;;;;;;;-4.44;71.23;101781.66;1675074;85;21322;-69
2022/03/02 05:05:23;;;;;;;92.50;36.23;;;;;;;-4.57;71.21;101784.16;1674659;84;21131;-69
2022/03/02 05:07:49;;;;;;;71.70;31.90;;;;;;;-4.67;71.22;101785.30;1674953;84;21510;-69
2022/03/02 05:10:17;;;;;;;83.70;34.95;;;;;;;-4.68;71.22;101791.41;1674917;85;21490;-69
2022/03/02 05:12:43;;;;;;;90.32;36.45;;;;;;;-4.68;71.21;101785.73;1659577;84;21201;-69
2022/03/02 05:15:10;;;;;;;103.92;40.08;;;;;;;-4.64;71.20;101780.00;1662653;85;21025;-69
2022/03/02 05:17:36;;;;;;;130.47;49.67;;;;;;;-4.66;71.20;101781.80;1655155;86;21034;-69
2022/03/02 05:20:07;;;;;;;104.35;44.05;;;;;;;-4.74;71.20;101787.20;1613805;89;21105;-69
2022/03/02 05:22:33;;;;;;;99.20;39.63;;;;;;;-4.77;71.22;101797.69;1641705;87;21089;-69
2022/03/02 05:24:59;;;;;;;116.77;43.48;;;;;;;-4.78;71.22;101802.48;1644659;86;21170;-69
2022/03/02 05:27:25;;;;;;;106.78;41.20;;;;;;;-4.81;71.22;101800.40;1651040;87;26648;-69
2022/03/02 05:29:51;;;;;;;102.82;40.73;;;;;;;-4.81;71.23;101794.75;1663544;85;21009;-69
2022/03/02 05:32:17;;;;;;;99.10;37.78;;;;;;;-4.85;71.22;101799.63;1663520;86;21014;-69
2022/03/02 05:34:43;;;;;;;133.18;48.68;;;;;;;-4.85;71.23;101794.42;1663559;86;26509;-69
2022/03/02 05:37:09;;;;;;;117.53;43.75;;;;;;;-4.84;71.24;101796.14;1663571;86;21162;-69
2022/03/02 05:39:35;;;;;;;130.30;44.15;;;;;;;-4.90;71.24;101791.09;1663543;85;21052;-69
2022/03/02 05:42:02;;;;;;;176.35;56.28;;;;;;;-5.01;71.25;101789.64;1663548;84;25783;-69
2022/03/02 05:44:28;;;;;;;221.72;68.40;;;;;;;-5.08;71.27;101788.50;1663282;86;21085;-69
2022/03/02 05:46:54;;;;;;;259.30;77.87;;;;;;;-5.12;71.29;101786.00;1664012;85;21089;-69
2022/03/02 05:49:20;;;;;;;225.70;66.05;;;;;;;-5.14;71.32;101780.83;1663130;86;21081;-68
2022/03/02 05:51:46;;;;;;;185.73;63.70;;;;;;;-5.12;71.33;101783.41;1663541;86;21027;-68
2022/03/02 05:54:12;;;;;;;273.90;86.10;;;;;;;-5.08;71.36;101791.54;1663196;86;21042;-68
2022/03/02 05:56:38;;;;;;;312.95;89.32;;;;;;;-5.03;71.39;101785.77;1663351;86;21046;-68
2022/03/02 05:59:06;;;;;;;346.85;102.82;;;;;;;-5.01;71.41;101784.44;1668087;86;21537;-68
2022/03/02 06:01:32;;;;;;;398.62;122.25;;;;;;;-5.04;71.41;101785.38;1683175;85;21095;-68
2022/03/02 06:04:00;;;;;;;367.60;123.05;;;;;;;-5.03;71.42;101786.23;1682895;85;20988;-68
2022/03/02 06:06:26;;;;;;;623.17;182.70;;;;;;;-5.00;71.46;101787.46;1682894;85;21504;-69
2022/03/02 06:08:52;;;;;;;554.67;156.28;;;;;;;-4.91;71.50;101789.37;1682414;85;28860;-69
2022/03/02 06:11:18;;;;;;;404.57;111.17;;;;;;;-4.80;71.52;101794.31;1668836;86;21017;-69
2022/03/02 06:13:45;;;;;;;497.57;130.52;;;;;;;-4.75;71.55;101791.98;1668535;86;21578;-69
2022/03/02 06:16:11;;;;;;;436.08;119.75;;;;;;;-4.70;71.59;101792.73;1656432;85;21095;-69
2022/03/02 06:18:38;;;;;;;410.67;122.85;;;;;;;-4.60;71.64;101799.85;1657447;86;21507;-69
2022/03/02 06:21:04;;;;;;;282.75;90.32;;;;;;;-4.58;71.67;101791.14;1657235;86;21047;-69
2022/03/02 06:23:32;;;;;;;304.82;99.42;;;;;;;-4.49;71.73;101789.16;1674897;84;21400;-69
2022/03/02 06:25:58;;;;;;;276.15;90.10;;;;;;;-4.30;71.72;101796.45;1683992;85;21492;-69
2022/03/02 06:28:25;;;;;;;317.07;91.75;;;;;;;-3.77;71.60;101795.39;1683551;85;20984;-69
2022/03/02 06:30:51;;;;;;;284.23;89.60;;;;;;;-3.56;71.52;101799.52;1683890;85;21102;-69
2022/03/02 06:33:18;;;;;;;342.85;97.80;;;;;;;-3.45;71.58;101798.33;1683871;85;21039;-69
2022/03/02 06:35:46;;;;;;;402.23;108.70;;;;;;;-3.33;71.64;101800.55;1684077;85;21060;-69
2022/03/02 06:38:12;;;;;;;342.45;86.63;;;;;;;-3.17;71.70;101797.88;1684790;85;21152;-69
2022/03/02 06:40:39;;;;;;;289.70;83.40;;;;;;;-2.99;71.78;101801.66;1684797;85;21066;-69
2022/03/02 06:43:12;;;;;;;319.18;98.82;;;;;;;-2.84;71.85;101803.30;1674820;84;21050;-69
2022/03/02 06:46:00;;;;;;;241.42;86.95;;;;;;;-2.65;71.90;101805.70;1674865;85;21501;-69
2022/03/02 06:48:52;;;;;;;238.90;75.55;;;;;;;-2.46;71.89;101799.86;1672866;84;21048;-69
2022/03/02 06:51:21;;;;;;;150.25;55.50;;;;;;;-2.30;71.88;101800.57;1674848;85;21150;-69
2022/03/02 06:53:47;;;;;;;177.30;62.20;;;;;;;-2.15;71.89;101790.89;1674695;85;21021;-70
2022/03/02 06:56:13;;;;;;;189.80;68.70;;;;;;;-1.93;71.92;101784.40;1683256;85;21067;-69
2022/03/02 06:58:52;;;;;;;198.28;75.35;;;;;;;-1.63;71.92;101781.96;1684811;85;21054;-70
2022/03/02 07:01:32;;;;;;;184.13;66.07;;;;;;;-1.31;71.90;101786.39;1685320;85;21099;-69
2022/03/02 07:03:59;;;;;;;211.15;72.78;;;;;;;-1.09;71.89;101789.87;1685095;85;21896;-70
2022/03/02 07:06:26;;;;;;;177.10;67.30;;;;;;;-0.86;71.87;101786.30;1685028;85;21046;-70
2022/03/02 07:08:53;;;;;;;154.60;58.28;;;;;;;-0.63;71.86;101787.03;1685148;85;21070;-70
2022/03/02 07:11:19;;;;;;;140.15;55.67;;;;;;;-0.41;71.75;101778.26;1682662;84;21078;-70
2022/03/02 07:13:49;;;;;;;130.55;48.52;;;;;;;-0.12;71.72;101780.47;1674961;85;21617;-69
2022/03/02 07:16:17;;;;;;;120.97;49.30;;;;;;;0.11;71.67;101785.97;1675110;83;21158;-70
2022/03/02 07:18:43;;;;;;;110.95;41.65;;;;;;;0.35;71.58;101780.45;1683299;84;21067;-70
2022/03/02 07:21:13;;;;;;;95.00;38.67;;;;;;;0.60;71.48;101778.03;1685258;85;21011;-70
2022/03/02 07:23:55;;;;;;;102.90;41.90;;;;;;;0.83;71.36;101783.02;1683379;85;21132;-70
2022/03/02 07:26:23;;;;;;;119.22;50.98;;;;;;;1.03;71.24;101781.58;1682928;84;36710;-70
2022/03/02 07:28:49;;;;;;;97.17;44.27;;;;;;;1.21;71.10;101781.98;1679744;83;21287;-70
2022/03/02 07:31:16;;;;;;;107.70;44.65;;;;;;;1.34;71.02;101778.27;1682412;84;21031;-70
2022/03/02 07:33:42;;;;;;;101.40;47.45;;;;;;;1.41;70.84;101771.77;1663881;85;21094;-70
2022/03/02 07:36:10;;;;;;;136.97;65.70;;;;;;;1.56;70.71;101776.72;1694812;83;21519;-70
2022/03/02 07:38:36;;;;;;;146.45;77.58;;;;;;;1.56;70.58;101776.26;1687848;83;21007;-70
2022/03/02 07:41:08;;;;;;;86.02;43.92;;;;;;;1.50;70.50;101760.34;1681547;85;21794;-71
2022/03/02 07:43:36;;;;;;;79.45;35.35;;;;;;;1.65;70.31;101774.95;1681868;85;21055;-71
2022/03/02 07:46:12;;;;;;;355.55;94.30;;;;;;;1.63;70.06;101770.22;1684312;83;21028;-70
2022/03/02 07:48:38;;;;;;;568.70;169.45;;;;;;;1.61;69.82;101772.94;1706683;83;21110;-71
2022/03/02 07:51:07;;;;;;;151.72;53.90;;;;;;;1.62;69.59;101763.28;1685281;85;21023;-71
2022/03/02 07:53:41;;;;;;;91.82;39.58;;;;;;;1.63;69.37;101761.02;1685159;85;21166;-71
2022/03/02 07:56:10;;;;;;;188.05;63.13;;;;;;;1.65;69.19;101750.83;1685221;85;21049;-71
2022/03/02 07:58:42;;;;;;;119.13;49.77;;;;;;;1.68;68.96;101755.92;1684217;84;21023;-71
2022/03/02 08:01:11;;;;;;;84.60;37.10;;;;;;;1.60;68.75;101757.23;1685433;85;21539;-71
2022/03/02 08:03:39;;;;;;;107.40;41.70;;;;;;;1.74;68.63;101752.11;1684377;83;21622;-71
2022/03/02 08:06:05;;;;;;;97.45;39.88;;;;;;;1.82;68.41;101750.78;1679750;85;21283;-71
2022/03/02 08:08:31;;;;;;;65.28;28.87;;;;;;;1.92;68.24;101745.87;1682244;83;21490;-72
2022/03/02 08:10:57;;;;;;;187.80;70.67;;;;;;;2.09;68.01;101739.70;1685374;83;21527;-72
2022/03/02 08:13:24;;;;;;;61.15;25.70;;;;;;;2.16;67.81;101739.75;1693094;83;21609;-70
2022/03/02 08:15:50;;;;;;;193.20;74.90;;;;;;;2.33;67.62;101741.00;1711947;82;21092;-70
2022/03/02 08:18:18;;;;;;;96.70;39.00;;;;;;;2.35;67.37;101740.00;1712024;82;21254;-71
2022/03/02 08:20:50;;;;;;;99.07;40.35;;;;;;;2.49;67.21;101747.12;1699832;82;21087;-70
2022/03/02 08:23:21;;;;;;;59.95;27.22;;;;;;;2.71;67.01;101742.83;1678889;84;21100;-70
2022/03/02 08:25:52;;;;;;;49.73;25.40;;;;;;;2.87;66.82;101739.70;1687373;84;21103;-71
2022/03/02 08:28:19;;;;;;;46.63;25.10;;;;;;;2.99;66.62;101738.50;1692839;83;21028;-71
2022/03/02 08:30:48;;;;;;;50.08;26.42;;;;;;;3.02;66.41;101733.55;1693009;83;21193;-70
2022/03/02 08:33:18;;;;;;;49.10;25.70;;;;;;;3.03;66.25;101732.13;1727501;82;20999;-71
2022/03/02 08:35:44;;;;;;;48.50;27.87;;;;;;;3.03;66.01;101740.49;1701844;82;21580;-71
2022/03/02 08:38:10;;;;;;;47.17;25.82;;;;;;;3.10;65.77;101728.66;1691582;83;21499;-70
2022/03/02 08:40:37;;;;;;;50.12;26.68;;;;;;;3.22;65.56;101727.10;1686083;83;21721;-71
2022/03/02 08:43:05;;;;;;;48.20;23.87;;;;;;;3.27;65.33;101720.61;1671774;85;21098;-71
2022/03/02 08:45:32;;;;;;;43.40;21.70;;;;;;;3.40;65.15;101716.79;1672929;85;21677;-71
2022/03/02 08:48:04;;;;;;;52.70;25.43;;;;;;;3.36;64.90;101719.23;1671575;85;21487;-71
2022/03/02 08:50:29;;;;;;;45.33;22.93;;;;;;;3.32;64.67;101718.56;1671037;85;21106;-71
2022/03/02 08:52:56;;;;;;;40.25;21.07;;;;;;;3.27;64.40;101713.20;1673558;84;21077;-70
2022/03/02 08:55:23;;;;;;;38.78;19.77;;;;;;;3.30;64.20;101709.91;1671175;85;21132;-71
2022/03/02 08:57:49;;;;;;;47.83;22.22;;;;;;;3.27;63.91;101707.42;1670363;85;21531;-72
2022/03/02 09:00:15;;;;;;;42.20;21.85;;;;;;;3.38;63.69;101715.55;1684176;84;21555;-71
2022/03/02 09:02:42;;;;;;;40.60;20.35;;;;;;;3.46;63.46;101713.78;1700084;82;21064;-71
2022/03/02 09:05:08;;;;;;;45.52;18.32;;;;;;;3.56;63.25;101714.06;1697481;82;21073;-71
2022/03/02 09:07:34;;;;;;;37.98;18.30;;;;;;;3.57;63.02;101711.81;1680352;84;21958;-72
2022/03/02 09:10:01;;;;;;;38.17;18.05;;;;;;;3.63;62.81;101714.06;1664805;83;21353;-71
2022/03/02 09:12:27;;;;;;;37.23;18.48;;;;;;;3.68;62.55;101710.69;1693850;82;21024;-71
2022/03/02 09:14:53;;;;;;;67.25;30.88;;;;;;;3.73;62.39;101709.45;1653092;86;21065;-71
2022/03/02 09:17:25;;;;;;;33.25;17.55;;;;;;;3.80;62.21;101706.00;1696402;82;21029;-71
2022/03/02 09:19:48;;;;;;;28.87;15.40;;;;;;;3.78;61.95;101707.86;1696993;84;21948;-71
2022/03/02 09:22:14;;;;;;;30.08;14.75;;;;;;;3.73;61.72;101703.36;1696130;84;21478;-71
2022/03/02 09:24:42;;;;;;;65.87;24.15;;;;;;;3.72;61.50;101705.61;1644376;86;21030;-71
2022/03/02 09:27:08;;;;;;;79.53;27.90;;;;;;;3.77;61.23;101704.84;1640669;86;21564;-71
2022/03/02 09:29:34;;;;;;;36.63;18.00;;;;;;;3.78;61.08;101701.27;1675409;84;21028;-71
2022/03/02 09:32:00;;;;;;;34.13;16.65;;;;;;;3.86;60.93;101695.91;1656650;85;21145;-71
2022/03/02 09:34:29;;;;;;;35.85;19.42;;;;;;;3.89;60.73;101695.71;1681868;83;20923;-71
2022/03/02 09:36:56;;;;;;;287.25;79.95;;;;;;;3.96;60.50;101698.81;1670245;84;21120;-71
2022/03/02 09:39:23;;;;;;;117.72;34.73;;;;;;;3.92;60.25;101697.30;1666843;86;21029;-71
2022/03/02 09:42:00;;;;;;;120.95;37.55;;;;;;;3.95;60.08;101699.75;1667689;84;21086;-71
2022/03/02 09:44:32;;;;;;;404.30;102.67;;;;;;;3.99;59.91;101694.66;1667459;84;21533;-71
2022/03/02 09:46:58;;;;;;;100.10;31.75;;;;;;;3.92;59.58;101692.03;1681306;84;21081;-71
2022/03/02 09:49:28;;;;;;;102.85;34.35;;;;;;;3.78;59.21;101690.25;1621606;84;21581;-71
2022/03/02 09:52:03;;;;;;;71.50;25.25;;;;;;;3.74;59.01;101679.50;1653121;85;21037;-71
2022/03/02 09:54:29;;;;;;;34.70;14.98;;;;;;;3.95;58.85;101681.27;1645920;84;21499;-71
2022/03/02 09:56:55;;;;;;;29.23;13.80;;;;;;;4.08;58.64;101679.58;1636367;87;21349;-72
2022/03/02 09:59:21;;;;;;;27.35;14.00;;;;;;;4.15;58.40;101682.67;1639932;85;21086;-71
2022/03/02 10:01:48;;;;;;;30.50;14.60;;;;;;;4.24;58.26;101676.80;1653345;84;21057;-71
2022/03/02 10:04:21;;;;;;;22.93;11.33;;;;;;;4.19;57.98;101678.40;1667787;84;21072;-72
2022/03/02 10:06:47;;;;;;;31.73;13.05;;;;;;;4.18;57.83;101675.88;1662768;84;21667;-71
2022/03/02 10:09:13;;;;;;;22.20;12.50;;;;;;;4.24;57.68;101672.37;1637360;86;21929;-72
2022/03/02 10:11:42;;;;;;;25.92;10.78;;;;;;;4.34;57.46;101673.47;1663566;86;21075;-71
2022/03/02 10:14:08;;;;;;;26.52;12.93;;;;;;;4.39;57.22;101667.43;1676540;85;21014;-72
2022/03/02 10:16:42;;;;;;;31.52;13.28;;;;;;;4.38;56.93;101660.91;1679717;83;21470;-71
2022/03/02 10:19:09;;;;;;;21.70;13.15;;;;;;;4.36;56.65;101672.88;1681772;83;21063;-72
2022/03/02 10:21:42;;;;;;;36.23;14.73;;;;;;;4.42;56.46;101671.19;1675156;83;21519;-72
2022/03/02 10:24:13;;;;;;;24.23;12.65;;;;;;;4.40;56.25;101669.57;1675841;85;21066;-72
2022/03/02 10:26:43;;;;;;;23.38;12.13;;;;;;;4.51;56.09;101671.05;1675840;85;21101;-72
2022/03/02 10:29:50;;;;;;;75.08;33.95;;;;;;;4.52;55.87;101665.67;1675301;85;21081;-71
2022/03/02 10:32:17;;;;;;;21.82;11.22;;;;;;;4.50;55.62;101659.63;1677446;85;21082;-71
2022/03/02 10:34:51;;;;;;;22.93;11.80;;;;;;;4.58;55.32;101663.09;1680270;83;21969;-71
2022/03/02 10:37:30;;;;;;;22.93;11.55;;;;;;;4.61;55.12;101658.11;1679557;83;21083;-71
2022/03/02 10:40:13;;;;;;;28.70;12.50;;;;;;;4.65;54.94;101662.22;1678909;83;21507;-72
2022/03/02 10:42:45;;;;;;;24.65;12.53;;;;;;;4.66;54.75;101660.80;1673595;83;21082;-72
2022/03/02 10:45:18;;;;;;;54.60;21.25;;;;;;;4.69;54.55;101651.35;1680000;83;21094;-72
2022/03/02 10:48:01;;;;;;;47.85;19.48;;;;;;;4.64;54.31;101651.30;1681840;84;21318;-71
2022/03/02 10:50:32;;;;;;;27.27;14.78;;;;;;;4.43;54.03;101653.05;1681606;85;21047;-72
2022/03/02 10:52:58;;;;;;;44.77;21.55;;;;;;;4.33;53.81;101646.68;1690132;83;21078;-72
2022/03/02 10:55:25;;;;;;;23.57;12.33;;;;;;;4.36;53.68;101642.52;1667284;86;20999;-71
2022/03/02 10:57:54;;;;;;;24.25;11.70;;;;;;;4.40;53.46;101636.09;1691688;84;21047;-71
2022/03/02 11:00:21;;;;;;;20.62;12.05;;;;;;;4.40;53.32;101633.45;1667444;86;21109;-71
2022/03/02 11:02:56;;;;;;;27.60;12.47;;;;;;;4.50;53.14;101634.54;1692293;83;21536;-72
2022/03/02 11:05:21;;;;;;;23.98;12.75;;;;;;;4.56;52.95;101637.73;1638736;87;21523;-73
2022/03/02 11:07:47;;;;;;;26.40;12.85;;;;;;;4.59;52.80;101630.92;1667164;86;21313;-73
2022/03/02 11:10:17;;;;;;;25.97;13.13;;;;;;;4.58;52.61;101626.58;1667568;86;21089;-73